Terminal Aerodrome Forecast
Issued by NWS Albuquerque, NM

Home | Current Version | Previous Version | Text Only | Print | Product List | Glossary On
Versions: 1 2 3 4 5 6 7 8 9 10 11 12 13
000
FTUS45 KABQ 281740
TAFABQ
TAF
KABQ 281740Z 2818/2918 VRB05KT P6SM FEW070 SCT120
     FM282000 24006KT P6SM VCSH SCT080 SCT120
      TEMPO 2820/2823 VRB16G28KT SCT070 BKN100
     FM282300 30009KT P6SM VCSH SCT080 BKN110
     FM290400 35007KT P6SM SCT080 BKN120
     FM290900 VRB05KT P6SM SCT090 SCT140=

USA.gov is the U.S. government's official web portal to all federal, state and local government web resources and services.